Time;durP1;ratioP1;P1;durP2;ratioP2;P2;SDS_P1;SDS_P2;PMS_P1;PMS_P2;Temp;Humidity;BMP_temperature;BMP_pressure;BME280_temperature;BME280_humidity;BME280_pressure;Samples;Min_cycle;Max_cycle;Signal;HPM_P1;HPM_P2
2022/04/15 00:01:40;;;;;;;9.43;3.15;;;13.70;99.90;;;;;;5031524;28;20025;-69
2022/04/15 00:04:05;;;;;;;6.82;2.92;;;13.60;99.90;;;;;;5027291;28;20995;-69
2022/04/15 00:06:32;;;;;;;8.82;2.90;;;13.60;99.90;;;;;;5029492;28;20033;-68
2022/04/15 00:08:59;;;;;;;12.80;3.05;;;13.60;99.90;;;;;;5026214;28;20025;-68
2022/04/15 00:11:25;;;;;;;7.05;3.03;;;13.60;99.90;;;;;;5030613;28;20116;-68
2022/04/15 00:13:51;;;;;;;3.63;2.30;;;13.60;99.90;;;;;;5027109;28;20040;-69
2022/04/15 00:16:17;;;;;;;5.30;2.70;;;13.50;99.90;;;;;;5030465;28;20025;-68
2022/04/15 00:18:43;;;;;;;8.68;3.28;;;13.50;99.90;;;;;;5027044;28;20037;-68
2022/04/15 00:21:10;;;;;;;7.22;3.20;;;13.50;99.90;;;;;;5030959;28;20036;-69
2022/04/15 00:23:35;;;;;;;4.95;2.47;;;13.40;99.90;;;;;;5025768;28;20743;-68
2022/04/15 00:26:01;;;;;;;5.68;2.97;;;13.40;99.90;;;;;;5027905;28;20032;-68
2022/04/15 00:28:27;;;;;;;7.95;3.42;;;13.40;99.90;;;;;;5027108;28;20041;-68
2022/04/15 00:30:53;;;;;;;6.13;2.42;;;13.30;99.90;;;;;;5026349;28;20029;-68
2022/04/15 00:33:19;;;;;;;5.90;2.50;;;13.30;99.90;;;;;;5023236;28;20033;-68
2022/04/15 00:35:45;;;;;;;3.67;2.75;;;13.30;99.90;;;;;;5046288;23;20230;-84
2022/04/15 00:38:11;;;;;;;6.75;2.40;;;13.30;99.90;;;;;;5051570;28;20476;-84
2022/04/15 00:40:36;;;;;;;5.97;2.63;;;13.30;99.90;;;;;;5048633;28;20013;-83
2022/04/15 00:43:02;;;;;;;7.18;2.60;;;13.20;99.90;;;;;;5048912;28;20021;-82
2022/04/15 00:48:03;;;;;;;7.07;2.63;;;13.20;99.90;;;;;;5004434;28;20096;-71
2022/04/15 00:50:34;;;;;;;5.95;2.45;;;13.20;99.90;;;;;;5006785;28;20131;-70
2022/04/15 00:53:06;;;;;;;3.47;2.20;;;13.10;99.90;;;;;;5007498;28;20033;-70
2022/04/15 00:55:32;;;;;;;4.72;2.35;;;13.10;99.90;;;;;;5007775;28;20053;-70
2022/04/15 00:58:03;;;;;;;3.70;1.92;;;13.10;99.90;;;;;;5006198;28;20025;-70
2022/04/15 01:00:31;;;;;;;5.88;2.80;;;13.20;99.90;;;;;;5020928;28;20034;-70
2022/04/15 01:02:59;;;;;;;3.75;2.35;;;13.10;99.90;;;;;;5004957;28;20038;-70
2022/04/15 01:05:26;;;;;;;4.40;1.88;;;13.10;99.90;;;;;;5007672;28;20025;-70
2022/04/15 01:07:55;;;;;;;3.95;2.35;;;13.00;99.90;;;;;;5006467;28;20072;-69
2022/04/15 01:10:25;;;;;;;7.18;2.63;;;13.00;99.90;;;;;;5006021;28;20072;-70
2022/04/15 01:12:56;;;;;;;7.03;2.22;;;13.00;99.90;;;;;;5004049;28;20146;-69
2022/04/15 01:15:24;;;;;;;4.60;2.47;;;12.90;99.90;;;;;;5004158;28;20057;-70
2022/04/15 01:17:50;;;;;;;5.43;2.42;;;12.90;99.90;;;;;;5006274;28;21047;-69
2022/04/15 01:20:19;;;;;;;4.38;2.63;;;12.90;99.90;;;;;;5001724;28;20030;-70
2022/04/15 01:22:47;;;;;;;5.90;2.67;;;12.80;99.90;;;;;;4999036;28;20030;-70
2022/04/15 01:25:17;;;;;;;5.20;2.22;;;12.80;99.90;;;;;;4998524;28;20022;-70
2022/04/15 01:27:45;;;;;;;4.28;2.55;;;12.80;99.90;;;;;;5002735;28;20029;-69
2022/04/15 01:30:21;;;;;;;10.65;2.58;;;12.70;99.90;;;;;;5004046;28;20425;-69
2022/04/15 01:32:53;;;;;;;3.92;2.33;;;12.70;99.90;;;;;;4998822;28;20034;-69
2022/04/15 01:35:19;;;;;;;6.68;2.67;;;12.60;99.90;;;;;;5004856;28;20022;-69
2022/04/15 01:37:47;;;;;;;5.80;2.78;;;12.60;99.90;;;;;;5002506;28;20627;-69
2022/04/15 01:40:15;;;;;;;4.60;2.40;;;12.60;99.90;;;;;;5000778;28;20021;-70
2022/04/15 01:42:41;;;;;;;3.70;2.33;;;12.50;99.90;;;;;;5000903;28;20141;-70
2022/04/15 01:45:11;;;;;;;4.68;2.58;;;12.50;99.90;;;;;;5002855;28;20390;-71
2022/04/15 01:47:37;;;;;;;7.43;2.80;;;12.50;99.90;;;;;;5004235;28;20038;-70
2022/04/15 01:50:05;;;;;;;4.97;2.58;;;12.40;99.90;;;;;;5001232;28;20103;-71
2022/04/15 01:52:34;;;;;;;4.13;2.50;;;12.30;99.90;;;;;;5001869;28;20042;-71
2022/04/15 01:55:01;;;;;;;5.88;3.03;;;12.40;99.90;;;;;;5007227;28;20101;-70
2022/04/15 01:57:27;;;;;;;4.30;2.88;;;12.30;99.90;;;;;;5002647;28;20494;-70
2022/04/15 01:59:52;;;;;;;6.22;2.78;;;12.30;99.90;;;;;;5008719;28;20044;-71
2022/04/15 02:02:18;;;;;;;6.30;2.42;;;12.30;99.90;;;;;;5004218;28;20038;-70
2022/04/15 02:04:44;;;;;;;4.70;2.40;;;12.30;99.90;;;;;;5018773;28;20030;-71
2022/04/15 02:07:19;;;;;;;5.32;2.50;;;12.20;99.90;;;;;;5006656;28;20029;-70
2022/04/15 02:09:44;;;;;;;4.55;2.72;;;12.10;99.90;;;;;;5020632;28;20038;-71
2022/04/15 02:12:13;;;;;;;7.00;3.25;;;12.10;99.90;;;;;;5006109;28;20033;-71
2022/04/15 02:14:38;;;;;;;4.75;2.72;;;12.10;99.90;;;;;;5011150;28;20030;-71
2022/04/15 02:17:04;;;;;;;6.32;2.95;;;12.10;99.90;;;;;;5004748;28;20504;-70
2022/04/15 02:19:30;;;;;;;10.57;2.85;;;12.00;99.90;;;;;;5003707;28;20987;-69
2022/04/15 02:21:56;;;;;;;4.63;2.88;;;12.00;99.90;;;;;;5005769;28;20482;-69
2022/04/15 02:24:21;;;;;;;7.18;2.65;;;12.00;99.90;;;;;;5010101;28;20025;-70
2022/04/15 02:26:47;;;;;;;7.32;2.63;;;12.00;99.90;;;;;;5003340;28;20053;-71
2022/04/15 02:29:12;;;;;;;5.57;2.60;;;12.00;99.90;;;;;;5006693;28;20394;-70
2022/04/15 02:31:44;;;;;;;5.15;2.58;;;12.00;99.90;;;;;;5009797;28;20058;-71
2022/04/15 02:34:10;;;;;;;5.35;2.75;;;12.00;99.90;;;;;;5004721;28;21234;-71
2022/04/15 02:36:42;;;;;;;4.93;2.78;;;12.00;99.90;;;;;;5007887;28;20022;-71
2022/04/15 02:39:10;;;;;;;5.13;2.65;;;12.00;99.90;;;;;;5007818;28;20100;-71
2022/04/15 02:41:40;;;;;;;5.90;2.55;;;12.00;99.90;;;;;;5009327;28;20044;-71
2022/04/15 02:44:07;;;;;;;7.22;2.95;;;12.00;99.90;;;;;;5006685;28;20032;-71
2022/04/15 02:46:34;;;;;;;6.07;2.72;;;12.00;99.90;;;;;;5001939;28;20036;-71
2022/04/15 02:49:11;;;;;;;4.05;2.53;;;12.00;99.90;;;;;;5003345;28;20045;-69
2022/04/15 02:51:37;;;;;;;6.97;2.90;;;12.00;99.90;;;;;;5005282;28;20552;-69
2022/04/15 02:54:03;;;;;;;5.10;2.80;;;12.00;99.90;;;;;;5008062;28;20019;-69
2022/04/15 02:56:28;;;;;;;3.85;2.53;;;12.00;99.90;;;;;;5002071;28;20026;-70
2022/04/15 02:58:54;;;;;;;5.43;2.72;;;12.00;99.90;;;;;;5009886;28;20104;-70
2022/04/15 03:01:20;;;;;;;6.43;2.53;;;12.10;99.90;;;;;;5002881;28;20085;-70
2022/04/15 03:03:46;;;;;;;6.65;3.13;;;12.10;99.90;;;;;;5005753;28;20030;-70
2022/04/15 03:06:12;;;;;;;5.63;2.92;;;12.00;99.90;;;;;;5001541;28;20033;-70
2022/04/15 03:08:37;;;;;;;5.05;2.58;;;12.00;99.90;;;;;;5002303;28;20030;-70
2022/04/15 03:11:07;;;;;;;8.50;3.20;;;12.00;99.90;;;;;;5006226;28;20032;-70
2022/04/15 03:13:34;;;;;;;5.50;2.50;;;12.00;99.90;;;;;;5003223;28;20033;-70
2022/04/15 03:16:00;;;;;;;6.38;3.30;;;12.00;99.90;;;;;;5006906;28;20072;-70
2022/04/15 03:18:26;;;;;;;4.00;2.85;;;12.00;99.90;;;;;;5001884;28;20022;-70
2022/04/15 03:20:51;;;;;;;6.30;2.97;;;12.00;99.90;;;;;;5005342;28;20479;-70
2022/04/15 03:23:19;;;;;;;6.45;3.22;;;11.90;99.90;;;;;;5003607;28;20228;-70
2022/04/15 03:25:48;;;;;;;7.00;3.33;;;11.90;99.90;;;;;;5003265;28;20026;-70
2022/04/15 03:28:15;;;;;;;6.88;2.58;;;11.90;99.90;;;;;;4999135;28;20026;-69
2022/04/15 03:30:41;;;;;;;5.22;2.80;;;11.90;99.90;;;;;;5007356;28;20026;-69
2022/04/15 03:33:06;;;;;;;6.00;2.70;;;11.80;99.90;;;;;;5002110;28;20509;-70
2022/04/15 03:35:32;;;;;;;6.28;3.20;;;11.80;99.90;;;;;;5004136;28;20429;-70
2022/04/15 03:37:58;;;;;;;5.60;3.00;;;11.70;99.90;;;;;;5005529;28;20026;-69
2022/04/15 03:40:24;;;;;;;4.78;2.90;;;11.70;99.90;;;;;;5002779;28;20029;-69
2022/04/15 03:42:53;;;;;;;6.03;3.60;;;11.60;99.90;;;;;;5002604;28;20035;-69
2022/04/15 03:45:22;;;;;;;4.53;2.85;;;11.60;99.90;;;;;;5020494;28;20914;-69
2022/04/15 03:47:51;;;;;;;4.75;3.00;;;11.50;99.90;;;;;;5006991;28;20391;-70
2022/04/15 03:50:18;;;;;;;5.90;3.20;;;11.50;99.90;;;;;;5000404;28;20482;-70
2022/04/15 03:52:46;;;;;;;6.82;3.35;;;11.50;99.90;;;;;;5004506;28;20026;-70
2022/04/15 03:55:16;;;;;;;4.75;3.03;;;11.50;99.90;;;;;;5006327;28;20029;-70
2022/04/15 03:57:43;;;;;;;6.35;3.15;;;11.40;99.90;;;;;;5006380;28;20478;-70
2022/04/15 04:00:14;;;;;;;5.28;3.40;;;11.40;99.90;;;;;;5006558;28;20822;-69
2022/04/15 04:02:43;;;;;;;6.05;3.47;;;11.40;99.90;;;;;;5001818;28;20088;-70
2022/04/15 04:05:09;;;;;;;6.70;3.17;;;11.30;99.90;;;;;;5004498;28;20040;-69
2022/04/15 04:07:35;;;;;;;6.15;2.85;;;11.30;99.90;;;;;;5002832;28;20474;-70
2022/04/15 04:10:01;;;;;;;8.35;3.30;;;11.30;99.90;;;;;;5002942;28;20437;-70
2022/04/15 04:12:31;;;;;;;8.63;3.53;;;11.30;99.90;;;;;;5003486;28;20073;-70
2022/04/15 04:14:57;;;;;;;6.50;3.08;;;11.20;99.90;;;;;;5004978;28;20022;-69
2022/04/15 04:17:29;;;;;;;8.27;3.17;;;11.20;99.90;;;;;;5000076;28;20769;-69
2022/04/15 04:19:55;;;;;;;4.28;2.72;;;11.20;99.90;;;;;;5002117;28;20049;-69
2022/04/15 04:22:21;;;;;;;5.63;3.50;;;11.10;99.90;;;;;;5001053;28;20838;-70
2022/04/15 04:24:53;;;;;;;7.68;3.63;;;11.10;99.90;;;;;;4999455;28;20026;-69
2022/04/15 04:27:21;;;;;;;5.07;3.20;;;11.10;99.90;;;;;;5004720;28;20034;-69
2022/04/15 04:29:47;;;;;;;6.70;3.67;;;11.00;99.90;;;;;;5002409;28;20025;-70
2022/04/15 04:32:17;;;;;;;5.43;3.55;;;11.00;99.90;;;;;;5000522;28;20984;-69
2022/04/15 04:34:48;;;;;;;6.55;4.07;;;11.00;99.90;;;;;;5001696;28;20022;-69
2022/04/15 04:37:14;;;;;;;7.82;3.60;;;11.00;99.90;;;;;;5002497;28;20105;-69
2022/04/15 04:39:40;;;;;;;7.80;3.35;;;11.00;99.90;;;;;;5006000;28;20029;-70
2022/04/15 04:42:07;;;;;;;6.28;3.63;;;11.00;99.90;;;;;;5008085;28;20026;-70
2022/04/15 04:44:35;;;;;;;6.47;3.90;;;11.00;99.90;;;;;;5001944;28;20108;-70
2022/04/15 04:47:07;;;;;;;5.82;3.38;;;11.00;99.90;;;;;;5005929;28;20040;-70
2022/04/15 04:49:39;;;;;;;5.63;3.25;;;11.00;99.90;;;;;;5007972;28;20038;-70
2022/04/15 04:52:06;;;;;;;5.63;3.22;;;11.00;99.90;;;;;;4998833;28;20040;-70
2022/04/15 04:54:31;;;;;;;7.68;3.90;;;11.00;99.90;;;;;;5002836;28;20040;-70
2022/04/15 04:56:58;;;;;;;6.05;3.30;;;11.00;99.90;;;;;;5005979;28;20141;-70
2022/04/15 04:59:25;;;;;;;6.93;3.35;;;11.00;99.90;;;;;;5004853;28;20113;-70
2022/04/15 05:01:54;;;;;;;6.90;3.80;;;11.00;99.90;;;;;;5004981;28;20470;-70
2022/04/15 05:04:20;;;;;;;6.80;3.55;;;11.10;99.90;;;;;;4999041;28;20028;-70
2022/04/15 05:06:46;;;;;;;5.53;3.40;;;11.10;99.90;;;;;;5003994;28;20042;-70
2022/04/15 05:09:11;;;;;;;5.93;3.47;;;11.10;99.90;;;;;;4995422;28;20399;-71
2022/04/15 05:11:37;;;;;;;8.07;3.90;;;11.10;99.90;;;;;;4999590;28;20030;-71
2022/04/15 05:14:02;;;;;;;10.85;3.85;;;11.10;99.90;;;;;;4994950;28;20030;-69
2022/04/15 05:16:28;;;;;;;8.00;3.35;;;11.20;99.90;;;;;;4995443;28;20034;-71
2022/04/15 05:18:54;;;;;;;8.13;3.72;;;11.30;99.90;;;;;;4998001;28;20041;-70
2022/04/15 05:21:19;;;;;;;7.20;3.70;;;11.30;99.90;;;;;;4981090;28;20034;-69
2022/04/15 05:23:48;;;;;;;8.82;4.25;;;11.30;99.90;;;;;;4988978;28;20390;-69
2022/04/15 05:26:14;;;;;;;7.38;3.58;;;11.40;99.90;;;;;;4986773;28;20065;-69
2022/04/15 05:28:41;;;;;;;11.02;4.97;;;11.40;99.90;;;;;;4991990;28;20036;-69
2022/04/15 05:31:07;;;;;;;11.55;5.40;;;11.50;99.90;;;;;;5004212;28;20029;-70
2022/04/15 05:33:33;;;;;;;9.25;4.88;;;11.50;99.90;;;;;;5004112;28;20057;-69
2022/04/15 05:35:59;;;;;;;13.50;5.55;;;11.50;99.90;;;;;;5003044;28;20034;-70
2022/04/15 05:38:24;;;;;;;9.80;5.53;;;11.60;99.90;;;;;;5004619;28;20026;-70
2022/04/15 05:40:50;;;;;;;10.48;5.95;;;11.60;99.90;;;;;;5005324;28;20052;-70
2022/04/15 05:43:16;;;;;;;12.68;6.75;;;11.60;99.90;;;;;;5006341;28;20036;-70
2022/04/15 05:45:42;;;;;;;10.45;5.68;;;11.70;99.90;;;;;;5008482;28;20065;-70
2022/04/15 05:48:08;;;;;;;14.52;7.13;;;11.70;99.90;;;;;;5005115;28;20038;-70
2022/04/15 05:50:33;;;;;;;16.17;7.50;;;11.80;99.90;;;;;;4999707;28;20092;-71
2022/04/15 05:52:59;;;;;;;18.05;7.78;;;11.90;99.90;;;;;;5003541;28;20022;-70
2022/04/15 05:55:25;;;;;;;14.20;7.03;;;12.10;99.90;;;;;;4998882;28;20026;-70
2022/04/15 05:57:51;;;;;;;15.05;7.63;;;12.20;99.90;;;;;;5004814;28;20022;-70
2022/04/15 06:00:17;;;;;;;12.75;6.05;;;12.20;99.90;;;;;;5004436;28;20021;-70
2022/04/15 06:02:42;;;;;;;15.40;6.85;;;12.30;99.90;;;;;;5003445;28;20656;-70
2022/04/15 06:05:08;;;;;;;14.77;6.03;;;12.40;99.90;;;;;;5000811;28;20509;-70
2022/04/15 06:07:34;;;;;;;10.88;5.30;;;12.40;99.90;;;;;;5003241;28;20042;-69
2022/04/15 06:09:59;;;;;;;7.95;4.72;;;12.40;99.90;;;;;;5006038;28;20066;-70
2022/04/15 06:12:54;;;;;;;11.60;5.07;;;12.40;99.90;;;;;;5003829;28;20456;-70
2022/04/15 06:15:23;;;;;;;10.88;5.00;;;12.40;99.90;;;;;;5005330;28;20028;-70
2022/04/15 06:17:50;;;;;;;14.20;4.72;;;12.50;99.90;;;;;;5002694;28;20106;-70
2022/04/15 06:20:17;;;;;;;8.52;4.60;;;12.50;99.90;;;;;;5003895;28;20034;-70
2022/04/15 06:22:43;;;;;;;7.45;4.25;;;12.50;99.90;;;;;;5000513;28;20030;-70
2022/04/15 06:25:09;;;;;;;10.38;4.97;;;12.60;99.90;;;;;;5003238;28;20076;-72
2022/04/15 06:27:35;;;;;;;8.18;4.35;;;12.60;99.90;;;;;;5023795;28;20117;-72
2022/04/15 06:30:02;;;;;;;6.43;3.83;;;12.70;99.90;;;;;;5023052;28;20117;-71
2022/04/15 06:32:27;;;;;;;7.25;3.92;;;12.70;99.90;;;;;;5002388;28;20034;-70
2022/04/15 06:34:53;;;;;;;7.35;4.75;;;12.80;99.90;;;;;;5005638;28;20025;-70
2022/04/15 06:37:18;;;;;;;6.22;4.03;;;12.80;99.90;;;;;;5004918;28;20030;-70
2022/04/15 06:39:50;;;;;;;5.50;3.70;;;12.90;99.90;;;;;;5007408;28;20018;-71
2022/04/15 06:42:21;;;;;;;7.55;4.70;;;12.90;99.90;;;;;;5023492;28;20095;-70
2022/04/15 06:44:47;;;;;;;7.40;3.95;;;13.10;99.90;;;;;;5009977;28;20034;-71
2022/04/15 06:47:12;;;;;;;6.78;3.80;;;13.20;99.90;;;;;;5026086;28;20034;-71
2022/04/15 06:49:38;;;;;;;6.50;4.32;;;13.30;99.90;;;;;;5007988;28;20037;-72
2022/04/15 06:52:04;;;;;;;6.63;4.35;;;13.30;99.90;;;;;;5009623;28;20490;-72
2022/04/15 06:54:30;;;;;;;12.20;5.30;;;13.50;99.90;;;;;;5005393;28;20060;-72
2022/04/15 06:56:55;;;;;;;8.82;6.13;;;13.60;99.90;;;;;;4997912;28;20065;-72
2022/04/15 06:59:21;;;;;;;11.20;5.65;;;13.60;99.90;;;;;;5010897;28;20436;-72
2022/04/15 07:01:47;;;;;;;13.10;6.70;;;13.60;99.90;;;;;;5004937;28;20030;-72
2022/04/15 07:04:13;;;;;;;10.40;6.10;;;13.70;99.90;;;;;;5007851;28;20499;-71
2022/04/15 07:06:39;;;;;;;12.27;6.90;;;13.70;99.90;;;;;;5006148;28;20026;-72
2022/04/15 07:09:04;;;;;;;13.18;6.72;;;13.80;99.90;;;;;;5007737;28;20033;-72
2022/04/15 07:11:30;;;;;;;16.42;6.55;;;13.80;99.90;;;;;;5007765;28;20068;-72
2022/04/15 07:13:56;;;;;;;12.75;7.32;;;13.90;99.90;;;;;;5005034;28;20051;-72
2022/04/15 07:16:21;;;;;;;11.70;6.15;;;13.90;99.90;;;;;;5011479;28;20030;-72
2022/04/15 07:18:47;;;;;;;9.75;6.65;;;14.00;99.90;;;;;;5018243;28;21116;-71
2022/04/15 07:21:12;;;;;;;11.05;6.03;;;14.10;99.90;;;;;;4997533;28;20038;-71
2022/04/15 07:23:38;;;;;;;10.57;6.20;;;14.20;99.90;;;;;;4998336;28;20026;-70
2022/04/15 07:26:04;;;;;;;10.02;5.88;;;14.20;99.90;;;;;;5000672;28;20083;-71
2022/04/15 07:28:29;;;;;;;12.68;6.85;;;14.30;99.90;;;;;;5001408;28;20053;-71
2022/04/15 07:30:55;;;;;;;10.27;5.97;;;14.40;99.90;;;;;;4994334;28;20114;-70
2022/04/15 07:33:21;;;;;;;8.20;6.45;;;14.50;99.90;;;;;;4999208;28;20036;-70
2022/04/15 07:35:46;;;;;;;13.38;6.20;;;14.60;99.90;;;;;;5002853;28;20060;-70
2022/04/15 07:38:12;;;;;;;9.75;5.95;;;14.60;99.90;;;;;;5002724;28;20026;-71
2022/04/15 07:40:38;;;;;;;9.30;5.85;;;14.70;99.90;;;;;;4996001;28;20109;-71
2022/04/15 07:43:03;;;;;;;9.15;6.25;;;14.70;99.90;;;;;;5003517;28;20042;-70
2022/04/15 07:45:29;;;;;;;14.93;6.13;;;14.70;99.90;;;;;;4997263;28;20128;-71
2022/04/15 07:47:55;;;;;;;9.82;5.43;;;14.70;99.90;;;;;;4998726;28;20474;-70
2022/04/15 07:50:25;;;;;;;10.70;6.07;;;14.80;99.90;;;;;;5002674;28;20033;-71
2022/04/15 07:52:56;;;;;;;11.45;6.22;;;14.90;99.90;;;;;;5000048;28;20030;-71
2022/04/15 07:55:22;;;;;;;9.20;5.85;;;15.00;99.90;;;;;;4998961;28;20022;-71
2022/04/15 07:57:48;;;;;;;11.73;6.53;;;15.10;99.90;;;;;;4993102;28;20036;-71
2022/04/15 08:00:14;;;;;;;10.70;6.85;;;15.20;99.90;;;;;;5010741;28;20033;-71
2022/04/15 08:02:40;;;;;;;11.45;6.70;;;15.30;99.90;;;;;;5003756;28;20033;-71
2022/04/15 08:05:06;;;;;;;14.70;8.43;;;15.40;99.90;;;;;;4995986;28;20041;-70
2022/04/15 08:07:32;;;;;;;16.70;9.50;;;15.60;99.90;;;;;;5002460;28;20120;-71
2022/04/15 08:09:58;;;;;;;15.07;9.60;;;15.60;99.90;;;;;;5004105;28;20187;-72
2022/04/15 08:12:23;;;;;;;12.15;8.63;;;15.80;99.90;;;;;;4997566;28;20081;-72
2022/04/15 08:14:52;;;;;;;13.52;7.85;;;15.80;99.90;;;;;;4997774;28;20470;-71
2022/04/15 08:17:18;;;;;;;15.95;8.57;;;16.00;99.90;;;;;;5006320;28;20493;-70
2022/04/15 08:19:44;;;;;;;14.35;7.13;;;16.10;99.90;;;;;;5002547;28;20102;-70
2022/04/15 08:22:10;;;;;;;13.90;8.57;;;16.20;99.90;;;;;;5000413;28;20029;-71
2022/04/15 08:24:42;;;;;;;12.52;8.32;;;16.20;99.90;;;;;;5003819;28;20060;-72
2022/04/15 08:27:08;;;;;;;15.90;8.57;;;16.20;99.90;;;;;;5004647;28;20589;-71
2022/04/15 08:29:35;;;;;;;11.82;7.40;;;16.30;99.90;;;;;;5003210;28;20033;-72
2022/04/15 08:32:01;;;;;;;12.43;8.57;;;16.40;99.90;;;;;;5003682;28;20048;-73
2022/04/15 08:34:27;;;;;;;13.10;7.55;;;16.60;99.90;;;;;;5002459;28;20053;-72
2022/04/15 08:36:53;;;;;;;15.32;8.27;;;16.60;99.90;;;;;;4996941;28;21277;-71
2022/04/15 08:39:18;;;;;;;16.10;8.75;;;16.70;99.90;;;;;;5015377;28;20523;-71
2022/04/15 08:41:44;;;;;;;12.73;7.88;;;16.70;99.90;;;;;;4997453;28;20478;-72
2022/04/15 08:44:10;;;;;;;12.52;8.38;;;16.70;99.90;;;;;;5001210;28;20029;-70
2022/04/15 08:46:41;;;;;;;12.00;8.20;;;16.60;99.90;;;;;;5000208;28;20038;-70
2022/04/15 08:49:12;;;;;;;13.82;7.78;;;16.70;99.90;;;;;;5000712;28;20425;-71
2022/04/15 08:51:49;;;;;;;16.00;9.32;;;16.80;99.90;;;;;;5000396;28;20386;-70
2022/04/15 08:54:16;;;;;;;14.48;8.52;;;16.90;99.90;;;;;;4996273;28;20022;-70
2022/04/15 08:56:43;;;;;;;12.85;8.35;;;16.80;99.90;;;;;;4998022;28;20022;-71
2022/04/15 08:59:09;;;;;;;12.10;8.95;;;16.80;99.90;;;;;;5004594;28;21173;-70
2022/04/15 09:01:37;;;;;;;12.77;8.88;;;16.80;99.90;;;;;;5001268;28;20026;-70
2022/04/15 09:04:03;;;;;;;12.02;7.63;;;16.80;99.90;;;;;;5000616;28;20398;-70
2022/04/15 09:06:32;;;;;;;14.40;10.02;;;16.80;99.90;;;;;;4998352;28;20037;-70
2022/04/15 09:09:29;;;;;;;16.98;9.38;;;16.90;99.90;;;;;;4999757;28;20030;-71
2022/04/15 09:11:56;;;;;;;11.25;8.15;;;16.90;99.90;;;;;;4995711;28;20052;-67
2022/04/15 09:14:23;;;;;;;17.55;8.38;;;17.00;99.90;;;;;;5018993;28;20116;-67
2022/04/15 09:16:51;;;;;;;13.38;8.43;;;17.20;99.90;;;;;;4999011;28;20037;-66
2022/04/15 09:19:18;;;;;;;15.75;8.23;;;17.40;99.90;;;;;;4996277;28;20030;-70
2022/04/15 09:21:55;;;;;;;14.07;8.65;;;17.50;99.70;;;;;;4991182;28;20100;-72
2022/04/15 09:24:31;;;;;;;13.25;8.13;;;17.60;99.20;;;;;;5004014;28;20037;-71
2022/04/15 09:26:57;;;;;;;10.50;7.60;;;17.60;98.10;;;;;;5001480;28;20025;-73
2022/04/15 09:29:25;;;;;;;12.38;7.28;;;17.70;98.10;;;;;;4997318;28;20442;-73
2022/04/15 09:31:55;;;;;;;11.95;8.60;;;17.80;98.10;;;;;;5003329;28;20414;-73
2022/04/15 09:34:21;;;;;;;11.50;8.32;;;17.80;97.60;;;;;;5000400;28;20095;-73
2022/04/15 09:36:47;;;;;;;10.10;6.95;;;17.80;97.50;;;;;;4998141;28;20026;-73
2022/04/15 09:39:16;;;;;;;11.98;7.50;;;17.90;97.50;;;;;;4998266;28;20445;-72
2022/04/15 09:41:56;;;;;;;12.75;6.90;;;18.00;97.30;;;;;;4997585;28;20204;-72
2022/04/15 09:44:31;;;;;;;11.20;7.97;;;18.10;96.70;;;;;;4995737;28;20021;-73
2022/04/15 09:46:57;;;;;;;13.38;7.25;;;18.20;96.10;;;;;;5001320;28;20022;-73
2022/04/15 09:49:25;;;;;;;15.18;9.15;;;18.20;95.20;;;;;;5003229;28;20044;-72
2022/04/15 09:51:51;;;;;;;12.02;8.48;;;18.00;95.10;;;;;;4997596;28;20501;-72
2022/04/15 09:54:28;;;;;;;10.43;7.45;;;18.10;95.30;;;;;;4997357;28;20232;-72
2022/04/15 09:56:58;;;;;;;10.90;8.20;;;18.00;95.60;;;;;;4996918;28;20726;-73
2022/04/15 09:59:28;;;;;;;13.75;8.07;;;18.20;95.40;;;;;;5003282;28;20489;-72
2022/04/15 10:02:02;;;;;;;13.52;7.90;;;18.10;95.40;;;;;;5004634;28;20096;-73
2022/04/15 10:04:28;;;;;;;;;;;18.20;95.20;;;;;;5005472;28;20037;-72
2022/04/15 10:06:54;;;;;;;11.30;7.10;;;18.30;95.30;;;;;;5003834;28;20366;-73
2022/04/15 10:09:23;;;;;;;10.15;7.80;;;18.40;95.10;;;;;;5004840;28;20021;-72
2022/04/15 10:11:50;;;;;;;10.80;7.28;;;18.50;94.90;;;;;;5019653;28;20030;-72
2022/04/15 10:14:18;;;;;;;10.80;7.35;;;18.60;94.20;;;;;;5004264;28;20101;-72
2022/04/15 10:16:43;;;;;;;10.52;7.85;;;18.60;93.70;;;;;;5004775;28;20141;-72
2022/04/15 10:19:11;;;;;;;7.45;5.78;;;18.60;93.80;;;;;;5015602;28;20120;-72
2022/04/15 10:21:57;;;;;;;9.60;6.93;;;18.80;94.10;;;;;;5006812;28;20030;-73
2022/04/15 10:24:25;;;;;;;13.75;6.38;;;19.00;93.10;;;;;;5002091;28;20049;-72
2022/04/15 10:26:59;;;;;;;9.30;6.43;;;19.10;92.90;;;;;;5000727;28;20037;-72
2022/04/15 10:29:24;;;;;;;10.18;7.00;;;18.90;92.10;;;;;;5002176;28;20088;-72
2022/04/15 10:31:52;;;;;;;10.18;6.53;;;18.90;91.70;;;;;;5000578;28;20481;-73
2022/04/15 10:34:19;;;;;;;10.45;6.75;;;19.00;91.40;;;;;;5004069;28;20076;-72
2022/04/15 10:36:49;;;;;;;8.98;6.00;;;19.10;91.10;;;;;;5001953;28;20114;-72
2022/04/15 10:39:17;;;;;;;10.75;6.10;;;19.20;91.10;;;;;;5002300;28;20018;-72
2022/04/15 10:41:42;;;;;;;8.02;6.18;;;19.10;90.80;;;;;;5001481;28;20511;-73
2022/04/15 10:44:23;;;;;;;10.20;6.68;;;19.20;90.90;;;;;;4996967;28;20026;-72
2022/04/15 10:46:49;;;;;;;8.25;6.22;;;19.10;91.10;;;;;;5007749;28;20084;-72
2022/04/15 10:49:23;;;;;;;10.50;6.55;;;19.00;91.10;;;;;;5006452;28;20122;-72
2022/04/15 10:51:52;;;;;;;9.70;6.03;;;18.90;89.00;;;;;;5003324;28;20052;-71
2022/04/15 10:54:40;;;;;;;8.55;5.80;;;18.80;90.00;;;;;;5006505;28;20026;-73
2022/04/15 10:57:17;;;;;;;8.73;6.72;;;18.90;90.20;;;;;;5006794;28;20022;-72
2022/04/15 11:02:57;;;;;;;9.30;7.50;;;18.90;90.10;;;;;;4998974;28;20123;-72
2022/04/15 11:05:56;;;;;;;9.43;7.15;;;18.90;89.10;;;;;;5019082;28;20033;-72
2022/04/15 11:08:23;;;;;;;11.25;6.57;;;19.10;89.50;;;;;;5000646;28;20066;-73
2022/04/15 11:11:07;;;;;;;13.23;6.68;;;19.20;89.80;;;;;;5000632;28;20038;-72
2022/04/15 11:16:59;;;;;;;14.60;9.18;;;19.20;88.40;;;;;;5004235;28;20379;-70
2022/04/15 11:19:26;;;;;;;13.40;7.07;;;19.20;87.40;;;;;;5004553;28;20022;-70
2022/04/15 11:21:53;;;;;;;12.80;6.85;;;19.10;87.30;;;;;;5001652;28;20018;-70
2022/04/15 11:24:27;;;;;;;10.55;6.95;;;19.10;85.80;;;;;;5005673;28;20375;-70
2022/04/15 11:27:10;;;;;;;9.98;7.10;;;19.00;86.00;;;;;;5008205;28;20084;-70
2022/04/15 11:29:40;;;;;;;11.50;6.68;;;19.10;84.10;;;;;;5009713;28;20037;-70
2022/04/15 11:32:08;;;;;;;11.05;7.28;;;19.00;84.80;;;;;;5007804;28;20505;-70
2022/04/15 11:34:35;;;;;;;12.20;6.55;;;19.00;84.60;;;;;;5009147;28;20483;-70
2022/04/15 11:37:03;;;;;;;12.95;7.30;;;18.90;84.50;;;;;;5005940;28;20023;-70
2022/04/15 11:39:29;;;;;;;7.72;6.47;;;18.90;85.30;;;;;;5009151;28;20230;-70
2022/04/15 11:41:59;;;;;;;12.95;8.35;;;19.00;85.50;;;;;;5010520;28;20036;-70
2022/04/15 11:44:30;;;;;;;13.95;9.10;;;19.00;85.50;;;;;;5010417;28;20037;-70
2022/04/15 11:47:15;;;;;;;12.75;8.20;;;18.90;86.30;;;;;;5008350;28;20425;-71
2022/04/15 11:49:42;;;;;;;14.70;8.65;;;18.90;86.20;;;;;;5009013;28;20041;-70
2022/04/15 11:52:08;;;;;;;12.75;8.10;;;19.00;86.40;;;;;;5006106;28;20458;-70
2022/04/15 11:54:35;;;;;;;10.50;7.28;;;19.00;85.10;;;;;;5007352;28;20169;-71
2022/04/15 11:57:07;;;;;;;10.27;7.30;;;19.00;83.70;;;;;;5006570;28;20030;-70
2022/04/15 11:59:43;;;;;;;8.80;6.90;;;19.00;82.90;;;;;;5004860;28;20033;-70
2022/04/15 12:02:23;;;;;;;11.02;7.00;;;19.00;82.90;;;;;;5007094;28;20029;-70
2022/04/15 12:04:56;;;;;;;12.27;7.45;;;19.20;82.60;;;;;;5006619;28;20034;-70
2022/04/15 12:07:23;;;;;;;11.70;6.55;;;19.00;79.80;;;;;;5005921;28;20026;-70
2022/04/15 12:09:51;;;;;;;7.53;5.90;;;19.20;80.30;;;;;;5009713;28;20033;-70
2022/04/15 12:12:17;;;;;;;9.65;6.25;;;19.20;79.50;;;;;;5005969;28;20068;-69
2022/04/15 12:14:43;;;;;;;8.85;5.53;;;19.30;79.40;;;;;;5006787;28;20044;-69
2022/04/15 12:17:15;;;;;;;8.60;5.05;;;19.60;78.20;;;;;;5005589;28;20033;-69
2022/04/15 12:19:50;;;;;;;8.45;5.43;;;19.70;76.40;;;;;;5007069;28;20033;-69
2022/04/15 12:22:23;;;;;;;7.95;5.70;;;19.70;76.40;;;;;;5007694;28;20045;-69
2022/04/15 12:25:11;;;;;;;7.33;5.30;;;19.60;76.60;;;;;;5022075;28;20057;-69
2022/04/15 12:27:37;;;;;;;11.48;6.20;;;19.60;77.10;;;;;;5006427;28;20081;-70
2022/04/15 12:30:05;;;;;;;7.25;4.72;;;19.60;75.70;;;;;;5007777;28;20050;-69
2022/04/15 12:32:39;;;;;;;7.80;4.80;;;19.50;75.40;;;;;;5003954;28;20478;-69
2022/04/15 12:35:18;;;;;;;10.57;5.45;;;19.30;75.80;;;;;;5008496;28;20025;-69
2022/04/15 12:38:00;;;;;;;9.80;5.95;;;19.30;75.80;;;;;;5023077;28;20125;-69
2022/04/15 12:40:31;;;;;;;9.80;4.40;;;19.30;75.90;;;;;;5019461;28;20113;-70
2022/04/15 12:43:17;;;;;;;7.65;4.97;;;19.30;75.80;;;;;;4999465;28;20033;-70
2022/04/15 12:45:53;;;;;;;7.72;5.63;;;19.30;76.10;;;;;;4996685;28;20026;-70
2022/04/15 12:48:24;;;;;;;5.55;4.70;;;19.40;75.90;;;;;;4993663;28;20033;-70
2022/04/15 12:50:55;;;;;;;9.57;4.82;;;19.40;75.40;;;;;;4995670;28;20032;-73
2022/04/15 12:53:22;;;;;;;5.63;4.38;;;19.50;75.20;;;;;;4996082;28;20037;-72
2022/04/15 12:55:50;;;;;;;6.22;4.53;;;19.50;74.90;;;;;;4993791;28;20111;-72
2022/04/15 12:58:26;;;;;;;5.57;3.92;;;19.60;74.70;;;;;;5001328;28;20025;-70